Ana Sayfa
METAR-TAF:

METAR-TAF

Havaalanları :

Gage, Oklahoma, Amerika Birleşik Devletleri

Enlem: 36-17-48N, Boylam: 099-46-08W, yükseklik: 677 m

Güncel hava durumu gözlemi

Rapor saat 23:53 UTC de 19 dakika önce yapıldı.
Rüzgar kuzeydan 15 kt ve 23 kt'a kadar ani rüzgarlar
Sıcaklık 16°C
Nem 77%
Basınç 1014 hPa
Görüş mesafesi: 16.1 km
2200 ft yükseklikte çok bulutlu

METAR: KGAG 252353Z AUTO 36015G23KT 10SM OVC022 16/12 A2994 RMK AO2 SLP127 T01610117 10172 20156 55001 $

Saat: 19:12 (00:12 UTC)


TAF: eksik

4.000'den fazla havaalanı için hava durumu gözlemleri ve tahminleri (METAR ve TAF raporları).

Kullanılabilir istasyonlar harita üzerinde sarı ve kırmızı noktalarla gösterilir.

İstasyonun adını görmek için fareyi noktanın üzerinde gezdirin.

Sonrasında hava gözlem ve tahminlerini görmek için tıklayın.

Haritayı değiştirmek için: yaklaştırmak için siyah artı işaretli yeşil düğmeye ve uzaklaştırmak için de eksi işaretli düğmeye hızla tıklayın; bitişik haritalar için yeşil okları kullanın.


METAR-TAF: